createdAt,value
2022-11-29T00:01:34.716Z,24.88
2022-11-29T00:04:03.167Z,37.90
2022-11-29T00:06:32.890Z,34.28
2022-11-29T00:09:09.669Z,35.05
2022-11-29T00:11:57.062Z,36.30
2022-11-29T00:14:26.439Z,35.83
2022-11-29T00:16:57.208Z,30.88
2022-11-29T00:19:24.975Z,28.52
2022-11-29T00:21:52.464Z,34.00
2022-11-29T00:24:20.115Z,33.10
2022-11-29T00:26:48.501Z,34.95
2022-11-29T00:29:16.396Z,32.00
2022-11-29T00:31:44.383Z,31.13
2022-11-29T00:34:12.721Z,31.58
2022-11-29T00:36:40.447Z,30.70
2022-11-29T00:39:11.658Z,35.70
2022-11-29T00:41:39.732Z,28.67
2022-11-29T00:44:07.104Z,31.45
2022-11-29T00:46:34.545Z,28.27
2022-11-29T00:49:02.025Z,31.23
2022-11-29T00:51:29.616Z,34.00
2022-11-29T00:53:57.038Z,32.05
2022-11-29T00:56:24.497Z,31.98
2022-11-29T00:58:51.907Z,29.98
2022-11-29T01:01:19.502Z,28.80
2022-11-29T01:03:47.164Z,29.05
2022-11-29T01:06:16.742Z,23.00
2022-11-29T01:08:45.745Z,25.58
2022-11-29T01:11:17.786Z,27.63
2022-11-29T01:13:45.510Z,29.67
2022-11-29T01:16:14.431Z,26.40
2022-11-29T01:18:42.921Z,25.95
2022-11-29T01:21:16.247Z,26.50
2022-11-29T01:23:45.111Z,29.85
2022-11-29T01:26:15.258Z,26.85
2022-11-29T01:28:45.428Z,26.30
2022-11-29T01:31:24.712Z,24.15
2022-11-29T01:34:00.823Z,23.45
2022-11-29T01:36:28.597Z,26.77
2022-11-29T01:38:56.278Z,27.48
2022-11-29T01:41:29.375Z,24.42
2022-11-29T01:44:01.406Z,25.55
2022-11-29T01:46:32.274Z,23.35
2022-11-29T01:49:05.315Z,26.38
2022-11-29T01:51:35.498Z,21.50
2022-11-29T01:54:03.689Z,22.27
2022-11-29T01:56:34.175Z,21.95
2022-11-29T01:59:06.290Z,25.15
2022-11-29T02:01:35.123Z,22.77
2022-11-29T02:04:02.934Z,24.52
2022-11-29T02:06:30.675Z,23.45
2022-11-29T02:08:58.308Z,25.50
2022-11-29T02:11:52.153Z,20.70
2022-11-29T02:14:40.937Z,17.98
2022-11-29T02:17:49.274Z,16.58
2022-11-29T02:20:47.685Z,19.30
2022-11-29T02:23:20.816Z,18.42
2022-11-29T02:26:10.149Z,18.30
2022-11-29T02:28:59.415Z,23.23
2022-11-29T02:31:57.270Z,21.20
2022-11-29T02:34:53.617Z,20.17
2022-11-29T02:37:42.082Z,22.30
2022-11-29T02:40:24.449Z,21.15
2022-11-29T02:46:01.748Z,21.73
2022-11-29T02:48:38.092Z,19.33
2022-11-29T02:51:32.752Z,17.65
2022-11-29T02:54:23.923Z,18.45
2022-11-29T02:56:59.142Z,16.42
2022-11-29T03:00:02.016Z,16.73
2022-11-29T03:02:42.904Z,21.08
2022-11-29T03:05:39.512Z,20.10
2022-11-29T03:08:25.057Z,19.42
2022-11-29T03:11:07.345Z,17.38
2022-11-29T03:16:39.691Z,18.38
2022-11-29T03:19:22.803Z,15.23
2022-11-29T03:22:08.939Z,20.02
2022-11-29T03:24:56.162Z,17.20
2022-11-29T03:27:37.990Z,18.50
2022-11-29T03:30:09.634Z,17.98
2022-11-29T03:33:02.641Z,20.95
2022-11-29T03:35:51.320Z,19.35
2022-11-29T03:38:34.008Z,20.13
2022-11-29T03:41:20.141Z,18.40
2022-11-29T03:44:00.065Z,21.52
2022-11-29T03:46:42.177Z,17.13
2022-11-29T03:49:26.203Z,18.75
2022-11-29T03:52:26.152Z,20.17
2022-11-29T03:55:46.423Z,19.45
2022-11-29T03:58:34.880Z,19.27
2022-11-29T04:01:35.824Z,19.50
2022-11-29T04:04:34.352Z,20.00
2022-11-29T04:07:07.942Z,16.40
2022-11-29T04:10:05.714Z,21.45
2022-11-29T04:13:01.428Z,20.90
2022-11-29T04:15:51.548Z,21.13
2022-11-29T04:19:15.731Z,19.10
2022-11-29T04:22:05.640Z,19.40
2022-11-29T04:24:55.803Z,18.33
2022-11-29T04:27:53.387Z,24.40
2022-11-29T04:30:23.703Z,25.15
2022-11-29T04:33:10.347Z,25.52
2022-11-29T04:36:14.547Z,22.92
2022-11-29T04:39:00.164Z,19.30
2022-11-29T04:41:39.529Z,21.17
2022-11-29T04:44:25.639Z,24.48
2022-11-29T04:47:08.074Z,26.00
2022-11-29T04:50:03.520Z,24.92
2022-11-29T04:52:39.715Z,21.38
2022-11-29T04:55:43.021Z,20.52
2022-11-29T04:59:02.579Z,21.95
2022-11-29T05:01:45.963Z,20.63
2022-11-29T05:04:34.561Z,19.83
2022-11-29T05:07:14.610Z,21.13
2022-11-29T05:10:05.820Z,19.33
2022-11-29T05:12:42.976Z,22.85
2022-11-29T05:15:48.000Z,30.05
2022-11-29T05:18:21.531Z,19.90
2022-11-29T05:21:19.302Z,20.17
2022-11-29T05:24:11.775Z,20.98
2022-11-29T05:29:29.787Z,20.65
2022-11-29T05:32:23.330Z,15.60
2022-11-29T05:34:59.550Z,19.92
2022-11-29T05:37:48.484Z,20.77
2022-11-29T05:40:44.228Z,18.05
2022-11-29T05:43:30.051Z,20.17
2022-11-29T05:46:21.169Z,18.05
2022-11-29T05:48:53.403Z,17.88
2022-11-29T05:54:12.886Z,22.38
2022-11-29T05:56:48.500Z,17.98
2022-11-29T05:59:21.827Z,18.48
2022-11-29T06:02:11.176Z,20.10
2022-11-29T06:05:09.332Z,16.00
2022-11-29T06:07:58.583Z,20.77
2022-11-29T06:10:32.820Z,18.58
2022-11-29T06:13:35.172Z,18.67
2022-11-29T06:16:28.593Z,16.77
2022-11-29T06:19:28.871Z,16.83
2022-11-29T06:22:17.028Z,19.52
2022-11-29T06:25:23.400Z,16.80
2022-11-29T06:28:13.937Z,17.27
2022-11-29T06:31:05.557Z,23.42
2022-11-29T06:33:47.874Z,16.23
2022-11-29T06:38:43.479Z,28.73
2022-11-29T06:41:18.360Z,20.25
2022-11-29T06:43:46.310Z,17.42
2022-11-29T06:46:25.722Z,14.80
2022-11-29T06:49:02.416Z,13.88
2022-11-29T06:52:03.385Z,13.57
2022-11-29T06:55:01.581Z,14.43
2022-11-29T06:57:54.544Z,21.15
2022-11-29T07:00:27.172Z,15.25
2022-11-29T07:03:06.775Z,15.98
2022-11-29T07:05:35.585Z,13.25
2022-11-29T07:08:14.123Z,14.00
2022-11-29T07:10:43.004Z,13.65
2022-11-29T07:13:13.682Z,16.15
2022-11-29T07:16:08.023Z,16.55
2022-11-29T07:18:54.198Z,12.20
2022-11-29T07:21:28.303Z,14.65
2022-11-29T07:24:12.333Z,16.75
2022-11-29T07:26:59.759Z,15.18
2022-11-29T07:29:53.704Z,14.95
2022-11-29T07:32:50.059Z,18.20
2022-11-29T07:35:45.458Z,13.40
2022-11-29T07:39:06.789Z,16.95
2022-11-29T07:41:55.065Z,18.73
2022-11-29T07:44:47.393Z,15.75
2022-11-29T07:49:42.179Z,19.73
2022-11-29T07:52:13.376Z,17.75
2022-11-29T07:54:40.973Z,17.80
2022-11-29T07:57:08.526Z,17.63
2022-11-29T07:59:35.921Z,17.65
2022-11-29T08:02:08.786Z,15.07
2022-11-29T08:04:45.161Z,17.00
2022-11-29T08:07:12.770Z,15.93
2022-11-29T08:09:40.141Z,17.70
2022-11-29T08:12:07.583Z,17.15
2022-11-29T08:14:34.991Z,16.02
2022-11-29T08:17:02.452Z,14.20
2022-11-29T08:19:30.055Z,17.17
2022-11-29T08:21:57.422Z,16.23
2022-11-29T08:24:26.295Z,16.08
2022-11-29T08:26:53.820Z,13.40
2022-11-29T08:29:21.275Z,19.92
2022-11-29T08:31:53.470Z,23.45
2022-11-29T08:34:22.586Z,17.83
2022-11-29T08:36:51.086Z,14.88
2022-11-29T08:39:18.497Z,18.17
2022-11-29T08:41:46.201Z,44.10
2022-11-29T08:44:13.562Z,15.90
2022-11-29T08:46:59.639Z,15.30
2022-11-29T08:49:27.082Z,17.65
2022-11-29T08:52:14.445Z,15.15
2022-11-29T08:54:42.048Z,15.50
2022-11-29T08:59:56.921Z,22.20
2022-11-29T09:02:24.393Z,19.30
2022-11-29T09:04:51.811Z,14.82
2022-11-29T09:07:19.208Z,17.05
2022-11-29T09:09:46.587Z,13.95
2022-11-29T09:12:14.160Z,16.38
2022-11-29T09:14:41.647Z,22.77
2022-11-29T09:17:09.054Z,14.05
2022-11-29T09:19:36.406Z,14.70
2022-11-29T09:22:03.793Z,15.35
2022-11-29T09:24:31.228Z,15.38
2022-11-29T09:26:58.667Z,13.90
2022-11-29T09:29:26.163Z,19.52
2022-11-29T09:31:53.603Z,12.20
2022-11-29T09:34:21.009Z,13.90
2022-11-29T09:36:48.441Z,16.45
2022-11-29T09:39:15.821Z,14.88
2022-11-29T09:41:49.340Z,15.73
2022-11-29T09:44:22.334Z,13.15
2022-11-29T09:47:03.812Z,16.52
2022-11-29T09:50:08.845Z,15.90
2022-11-29T09:53:13.563Z,14.52
2022-11-29T09:56:04.333Z,13.70
2022-11-29T09:58:40.593Z,17.30
2022-11-29T10:01:13.206Z,14.27
2022-11-29T10:03:49.625Z,12.95
2022-11-29T10:06:29.151Z,13.05
2022-11-29T10:09:02.243Z,16.70
2022-11-29T10:11:48.531Z,10.15
2022-11-29T10:14:21.437Z,15.50
2022-11-29T10:16:51.697Z,13.00
2022-11-29T10:19:33.357Z,12.30
2022-11-29T10:22:11.985Z,15.40
2022-11-29T10:24:41.873Z,14.52
2022-11-29T10:27:30.079Z,13.82
2022-11-29T10:30:00.966Z,15.05
2022-11-29T10:32:32.064Z,14.18
2022-11-29T10:35:01.613Z,14.13
2022-11-29T10:37:32.727Z,12.32
2022-11-29T10:40:05.096Z,12.38
2022-11-29T10:42:52.646Z,13.52
2022-11-29T10:45:34.991Z,11.05
2022-11-29T10:48:14.715Z,11.68
2022-11-29T10:50:44.462Z,13.18
2022-11-29T10:53:26.969Z,12.27
2022-11-29T10:58:31.785Z,11.27
2022-11-29T11:01:07.947Z,13.00
2022-11-29T11:03:45.083Z,11.98
2022-11-29T11:06:20.788Z,17.92
2022-11-29T11:08:52.826Z,11.23
2022-11-29T11:11:32.243Z,14.90
2022-11-29T11:14:19.434Z,13.40
2022-11-29T11:16:46.829Z,13.65
2022-11-29T11:19:34.517Z,12.75
2022-11-29T11:22:03.774Z,14.70
2022-11-29T11:24:33.402Z,13.45
2022-11-29T11:27:01.515Z,14.02
2022-11-29T11:29:37.723Z,13.65
2022-11-29T11:32:07.630Z,17.15
2022-11-29T11:34:37.752Z,15.00
2022-11-29T11:37:32.510Z,18.30
2022-11-29T11:40:27.340Z,19.13
2022-11-29T11:42:57.835Z,21.48
2022-11-29T11:45:31.854Z,18.60
2022-11-29T11:48:10.858Z,19.80
2022-11-29T11:50:44.989Z,21.63
2022-11-29T11:53:35.789Z,18.52
2022-11-29T11:56:05.460Z,20.77
2022-11-29T11:58:37.686Z,19.90
2022-11-29T12:04:07.485Z,17.55
2022-11-29T12:06:50.096Z,20.33
2022-11-29T12:09:23.316Z,18.52
2022-11-29T12:12:10.166Z,17.23
2022-11-29T12:14:54.609Z,17.50
2022-11-29T12:17:27.681Z,21.38
2022-11-29T12:20:16.808Z,18.45
2022-11-29T12:22:58.292Z,17.58
2022-11-29T12:25:33.308Z,17.97
2022-11-29T12:28:00.759Z,17.80
2022-11-29T12:30:28.353Z,19.48
2022-11-29T12:33:07.550Z,19.67
2022-11-29T12:35:59.485Z,17.92
2022-11-29T12:38:44.379Z,16.65
2022-11-29T12:41:21.872Z,16.50
2022-11-29T12:44:03.996Z,19.75
2022-11-29T12:46:32.738Z,18.95
2022-11-29T12:49:15.310Z,21.02
2022-11-29T12:52:05.853Z,18.08
2022-11-29T12:54:44.004Z,18.20
2022-11-29T12:57:22.790Z,17.65
2022-11-29T12:59:52.963Z,18.17
2022-11-29T13:02:46.384Z,18.15
2022-11-29T13:05:33.860Z,18.98
2022-11-29T13:08:30.274Z,19.50
2022-11-29T13:11:14.586Z,23.60
2022-11-29T13:14:13.748Z,21.30
2022-11-29T13:17:01.537Z,20.48
2022-11-29T13:19:52.989Z,21.52
2022-11-29T13:22:26.966Z,21.50
2022-11-29T13:25:01.215Z,17.27
2022-11-29T13:27:42.936Z,16.00
2022-11-29T13:30:15.820Z,22.10
2022-11-29T13:32:43.176Z,18.25
2022-11-29T13:35:43.155Z,18.45
2022-11-29T13:38:28.989Z,18.90
2022-11-29T13:40:59.772Z,17.20
2022-11-29T13:43:51.876Z,19.38
2022-11-29T13:46:43.558Z,16.40
2022-11-29T13:49:53.476Z,20.23
2022-11-29T13:52:42.442Z,20.08
2022-11-29T13:55:12.576Z,20.27
2022-11-29T14:00:45.381Z,21.58
2022-11-29T14:03:21.877Z,19.13
2022-11-29T14:05:54.989Z,18.80
2022-11-29T14:08:26.920Z,22.70
2022-11-29T14:11:02.632Z,22.20
2022-11-29T14:13:47.429Z,17.85
2022-11-29T14:16:39.667Z,20.95
2022-11-29T14:19:33.809Z,17.58
2022-11-29T14:22:07.558Z,16.80
2022-11-29T14:24:38.066Z,19.30
2022-11-29T14:27:12.742Z,16.70
2022-11-29T14:29:55.316Z,16.10
2022-11-29T14:32:44.414Z,16.95
2022-11-29T14:35:21.142Z,18.40
2022-11-29T14:38:29.197Z,17.63
2022-11-29T14:41:06.233Z,17.38
2022-11-29T14:43:37.931Z,15.18
2022-11-29T14:46:14.563Z,14.73
2022-11-29T14:48:46.966Z,15.65
2022-11-29T14:51:19.558Z,15.00
2022-11-29T14:54:03.701Z,22.33
2022-11-29T14:56:42.660Z,13.45
2022-11-29T14:59:38.011Z,14.93
2022-11-29T15:02:26.771Z,15.20
2022-11-29T15:04:57.062Z,15.05
2022-11-29T15:07:29.722Z,19.17
2022-11-29T15:10:02.836Z,16.40
2022-11-29T15:12:35.839Z,14.82
2022-11-29T15:15:18.366Z,23.85
2022-11-29T15:21:06.476Z,17.02
2022-11-29T15:23:45.409Z,16.85
2022-11-29T15:26:20.991Z,17.38
2022-11-29T15:28:48.725Z,14.38
2022-11-29T15:31:20.714Z,20.08
2022-11-29T15:33:49.415Z,19.58
2022-11-29T15:36:21.856Z,19.90
2022-11-29T15:38:52.123Z,21.02
2022-11-29T15:41:30.925Z,17.88
2022-11-29T15:44:00.630Z,20.58
2022-11-29T15:46:30.512Z,22.00
2022-11-29T15:49:22.429Z,20.08
2022-11-29T15:52:02.023Z,20.85
2022-11-29T15:54:37.069Z,22.80
2022-11-29T15:57:13.299Z,21.63
2022-11-29T15:59:51.184Z,23.00
2022-11-29T16:02:26.342Z,21.65
2022-11-29T16:05:01.328Z,24.92
2022-11-29T16:07:32.563Z,19.67
2022-11-29T16:10:11.654Z,23.40
2022-11-29T16:12:59.990Z,20.67
2022-11-29T16:15:33.378Z,23.00
2022-11-29T16:18:19.959Z,22.55
2022-11-29T16:21:00.038Z,20.50
2022-11-29T16:23:41.313Z,20.65
2022-11-29T16:26:26.823Z,20.10
2022-11-29T16:28:59.116Z,24.75
2022-11-29T16:31:36.377Z,22.98
2022-11-29T16:34:40.024Z,22.15
2022-11-29T16:37:26.107Z,28.67
2022-11-29T16:39:59.341Z,24.92
2022-11-29T16:42:28.187Z,31.25
2022-11-29T16:45:10.865Z,23.10
2022-11-29T16:47:52.929Z,27.50
2022-11-29T16:50:22.532Z,32.35
2022-11-29T16:52:56.065Z,27.50
2022-11-29T16:55:24.274Z,25.98
2022-11-29T16:57:52.358Z,23.52
2022-11-29T17:00:32.636Z,22.75
2022-11-29T17:03:00.536Z,25.77
2022-11-29T17:05:28.249Z,25.30
2022-11-29T17:07:55.741Z,22.77
2022-11-29T17:10:25.094Z,27.65
2022-11-29T17:12:52.826Z,24.50
2022-11-29T17:15:20.154Z,30.13
2022-11-29T17:17:47.579Z,27.83
2022-11-29T17:20:15.062Z,22.63
2022-11-29T17:22:42.513Z,26.58
2022-11-29T17:25:10.471Z,28.65
2022-11-29T17:27:38.370Z,23.08
2022-11-29T17:30:07.017Z,28.48
2022-11-29T17:32:38.155Z,22.00
2022-11-29T17:35:05.832Z,31.33
2022-11-29T17:37:33.209Z,25.02
2022-11-29T17:40:00.609Z,29.05
2022-11-29T17:42:27.995Z,28.92
2022-11-29T17:44:55.347Z,31.50
2022-11-29T17:47:22.711Z,30.95
2022-11-29T17:49:50.150Z,32.38
2022-11-29T17:52:17.521Z,33.03
2022-11-29T17:54:44.951Z,27.42
2022-11-29T17:57:12.507Z,30.92
2022-11-29T17:59:39.847Z,31.25
2022-11-29T18:02:07.300Z,29.98
2022-11-29T18:04:34.762Z,32.75
2022-11-29T18:07:02.208Z,34.85
2022-11-29T18:09:29.553Z,28.98
2022-11-29T18:11:56.973Z,32.45
2022-11-29T18:14:28.010Z,27.52
2022-11-29T18:16:55.549Z,32.05
2022-11-29T18:19:23.740Z,34.00
2022-11-29T18:21:52.117Z,28.90
2022-11-29T18:24:19.730Z,34.38
2022-11-29T18:26:47.161Z,37.05
2022-11-29T18:29:14.769Z,28.83
2022-11-29T18:31:44.676Z,30.88
2022-11-29T18:34:13.536Z,32.17
2022-11-29T18:36:47.144Z,30.52
2022-11-29T18:39:19.424Z,34.30
2022-11-29T18:41:48.801Z,36.03
2022-11-29T18:44:19.442Z,30.25
2022-11-29T18:46:47.328Z,43.83
2022-11-29T18:49:16.787Z,38.58
2022-11-29T18:51:45.902Z,31.17
2022-11-29T18:54:15.555Z,37.70
2022-11-29T18:56:44.244Z,28.08
2022-11-29T18:59:16.539Z,37.60
2022-11-29T19:01:45.839Z,26.80
2022-11-29T19:04:18.858Z,32.20
2022-11-29T19:06:46.307Z,32.08
2022-11-29T19:09:17.220Z,42.67
2022-11-29T19:11:44.645Z,48.65
2022-11-29T19:14:12.895Z,45.20
2022-11-29T19:16:46.378Z,34.75
2022-11-29T19:19:13.873Z,40.47
2022-11-29T19:21:41.797Z,39.63
2022-11-29T19:24:15.853Z,39.85
2022-11-29T19:26:45.598Z,42.40
2022-11-29T19:29:14.043Z,35.13
2022-11-29T19:31:42.424Z,40.30
2022-11-29T19:34:10.392Z,39.67
2022-11-29T19:36:42.981Z,37.22
2022-11-29T19:39:13.963Z,33.97
2022-11-29T19:41:43.870Z,36.63
2022-11-29T19:44:12.386Z,33.10
2022-11-29T19:46:42.902Z,42.55
2022-11-29T19:49:11.128Z,41.20
2022-11-29T19:51:38.825Z,37.17
2022-11-29T19:54:08.042Z,35.17
2022-11-29T19:56:36.044Z,42.15
2022-11-29T19:59:03.867Z,36.33
2022-11-29T20:01:39.756Z,36.17
2022-11-29T20:04:09.214Z,35.72
2022-11-29T20:06:36.989Z,37.70
2022-11-29T20:09:04.811Z,31.77
2022-11-29T20:11:32.350Z,35.72
2022-11-29T20:14:01.370Z,34.60
2022-11-29T20:16:30.307Z,35.55
2022-11-29T20:18:58.748Z,29.75
2022-11-29T20:21:27.536Z,33.85
2022-11-29T20:23:57.032Z,31.33
2022-11-29T20:26:25.555Z,31.25
2022-11-29T20:28:53.156Z,30.02
2022-11-29T20:31:22.977Z,30.95
2022-11-29T20:33:53.553Z,30.80
2022-11-29T20:36:32.597Z,35.03
2022-11-29T20:39:19.634Z,29.67
2022-11-29T20:41:59.080Z,29.60
2022-11-29T20:44:43.702Z,29.02
2022-11-29T20:47:19.350Z,28.45
2022-11-29T20:49:47.432Z,31.38
2022-11-29T20:52:32.531Z,28.02
2022-11-29T20:55:00.171Z,25.48
2022-11-29T20:57:28.491Z,28.10
2022-11-29T20:59:55.927Z,27.40
2022-11-29T21:02:23.485Z,25.48
2022-11-29T21:04:51.294Z,31.67
2022-11-29T21:07:18.671Z,30.10
2022-11-29T21:09:46.355Z,30.75
2022-11-29T21:12:14.400Z,27.15
2022-11-29T21:14:42.931Z,26.08
2022-11-29T21:17:10.712Z,31.15
2022-11-29T21:19:39.726Z,30.98
2022-11-29T21:22:25.443Z,28.27
2022-11-29T21:24:59.401Z,26.98
2022-11-29T21:27:33.310Z,29.08
2022-11-29T21:30:05.724Z,29.58
2022-11-29T21:32:33.972Z,39.85
2022-11-29T21:35:01.349Z,34.63
2022-11-29T21:37:30.865Z,37.38
2022-11-29T21:39:58.273Z,28.67
2022-11-29T21:42:26.843Z,31.27
2022-11-29T21:44:54.233Z,30.50
2022-11-29T21:47:21.662Z,31.77
2022-11-29T21:49:49.779Z,30.30
2022-11-29T21:52:22.228Z,28.35
2022-11-29T21:54:50.498Z,27.92
2022-11-29T21:57:17.931Z,33.00
2022-11-29T21:59:45.324Z,34.63
2022-11-29T22:02:12.854Z,37.15
2022-11-29T22:04:40.327Z,34.97
2022-11-29T22:07:07.730Z,33.42
2022-11-29T22:09:35.150Z,39.33
2022-11-29T22:12:14.823Z,37.78
2022-11-29T22:14:49.938Z,32.53
2022-11-29T22:17:17.287Z,34.47
2022-11-29T22:19:44.685Z,33.30
2022-11-29T22:22:12.158Z,31.83
2022-11-29T22:24:39.510Z,26.73
2022-11-29T22:27:07.154Z,32.65
2022-11-29T22:29:34.571Z,36.78
2022-11-29T22:32:02.321Z,35.35
2022-11-29T22:34:29.726Z,36.03
2022-11-29T22:36:57.098Z,34.00
2022-11-29T22:39:24.560Z,35.60
2022-11-29T22:41:54.741Z,34.30
2022-11-29T22:44:23.841Z,34.78
2022-11-29T22:46:51.593Z,40.63
2022-11-29T22:49:19.107Z,31.40
2022-11-29T22:51:46.495Z,32.67
2022-11-29T22:54:16.433Z,28.75
2022-11-29T22:56:45.537Z,28.85
2022-11-29T22:59:13.334Z,28.55
2022-11-29T23:01:41.749Z,36.33
2022-11-29T23:04:10.771Z,30.30
2022-11-29T23:06:43.685Z,33.50
2022-11-29T23:09:22.439Z,26.13
2022-11-29T23:11:54.207Z,30.40
2022-11-29T23:14:22.475Z,28.77
2022-11-29T23:16:50.153Z,29.33
2022-11-29T23:19:17.576Z,28.05
2022-11-29T23:21:46.197Z,30.05
2022-11-29T23:24:16.389Z,28.35
2022-11-29T23:26:46.133Z,34.42
2022-11-29T23:29:16.119Z,33.47
2022-11-29T23:31:44.235Z,31.98
2022-11-29T23:34:11.893Z,38.28
2022-11-29T23:36:39.493Z,40.95
2022-11-29T23:39:07.731Z,33.90
2022-11-29T23:41:36.836Z,36.85
2022-11-29T23:44:09.312Z,36.20
2022-11-29T23:46:36.969Z,38.10
2022-11-29T23:49:04.466Z,37.10
2022-11-29T23:51:31.847Z,36.05
2022-11-29T23:53:59.262Z,36.85
2022-11-29T23:56:27.258Z,34.17
2022-11-29T23:58:54.637Z,32.42
